sensor_id;sensor_type;location;lat;lon;timestamp;temperature;humidity
52509;DHT22;38420;53.150;6.370;2022-10-17T00:00:25;12.10;99.90
52509;DHT22;38420;53.150;6.370;2022-10-17T00:02:50;12.30;99.90
52509;DHT22;38420;53.150;6.370;2022-10-17T00:05:18;12.30;99.90
52509;DHT22;38420;53.150;6.370;2022-10-17T00:07:44;12.30;99.90
52509;DHT22;38420;53.150;6.370;2022-10-17T00:10:09;12.40;99.90
52509;DHT22;38420;53.150;6.370;2022-10-17T00:12:35;12.40;99.90
52509;DHT22;38420;53.150;6.370;2022-10-17T00:15:03;12.20;99.90
52509;DHT22;38420;53.150;6.370;2022-10-17T00:17:29;12.40;99.90
52509;DHT22;38420;53.150;6.370;2022-10-17T00:19:58;12.30;99.90
52509;DHT22;38420;53.150;6.370;2022-10-17T00:22:24;12.40;99.90
52509;DHT22;38420;53.150;6.370;2022-10-17T00:24:49;12.40;99.90
52509;DHT22;38420;53.150;6.370;2022-10-17T00:27:15;12.40;99.90
52509;DHT22;38420;53.150;6.370;2022-10-17T00:29:40;12.20;99.90
52509;DHT22;38420;53.150;6.370;2022-10-17T00:32:06;12.20;99.90
52509;DHT22;38420;53.150;6.370;2022-10-17T00:34:31;12.20;99.90
52509;DHT22;38420;53.150;6.370;2022-10-17T00:36:57;12.40;99.90
52509;DHT22;38420;53.150;6.370;2022-10-17T00:39:23;12.30;99.90
52509;DHT22;38420;53.150;6.370;2022-10-17T00:41:48;12.40;99.90
52509;DHT22;38420;53.150;6.370;2022-10-17T00:47:01;12.20;99.90
52509;DHT22;38420;53.150;6.370;2022-10-17T00:49:31;12.30;99.90
52509;DHT22;38420;53.150;6.370;2022-10-17T00:52:07;12.20;99.90
52509;DHT22;38420;53.150;6.370;2022-10-17T00:54:38;12.40;99.90
52509;DHT22;38420;53.150;6.370;2022-10-17T00:57:05;12.60;99.90
52509;DHT22;38420;53.150;6.370;2022-10-17T00:59:33;12.30;99.90
52509;DHT22;38420;53.150;6.370;2022-10-17T01:02:11;12.40;99.90
52509;DHT22;38420;53.150;6.370;2022-10-17T01:04:41;12.60;99.90
52509;DHT22;38420;53.150;6.370;2022-10-17T01:07:07;12.60;99.90
52509;DHT22;38420;53.150;6.370;2022-10-17T01:09:33;12.40;99.90
52509;DHT22;38420;53.150;6.370;2022-10-17T01:23:09;12.40;99.90
52509;DHT22;38420;53.150;6.370;2022-10-17T01:29:00;12.70;99.90
52509;DHT22;38420;53.150;6.370;2022-10-17T01:31:46;12.60;99.90
52509;DHT22;38420;53.150;6.370;2022-10-17T01:34:25;12.80;99.90
52509;DHT22;38420;53.150;6.370;2022-10-17T01:39:55;12.50;99.90
52509;DHT22;38420;53.150;6.370;2022-10-17T01:42:36;12.80;99.90
52509;DHT22;38420;53.150;6.370;2022-10-17T01:45:13;12.50;99.90
52509;DHT22;38420;53.150;6.370;2022-10-17T01:47:41;12.50;99.90
52509;DHT22;38420;53.150;6.370;2022-10-17T01:50:17;12.60;99.90
52509;DHT22;38420;53.150;6.370;2022-10-17T01:52:50;12.80;99.90
52509;DHT22;38420;53.150;6.370;2022-10-17T01:55:26;12.70;99.90
52509;DHT22;38420;53.150;6.370;2022-10-17T01:58:02;12.80;99.90
52509;DHT22;38420;53.150;6.370;2022-10-17T02:00:30;12.70;99.90
52509;DHT22;38420;53.150;6.370;2022-10-17T02:02:59;12.70;99.90
52509;DHT22;38420;53.150;6.370;2022-10-17T02:05:30;12.70;99.90
52509;DHT22;38420;53.150;6.370;2022-10-17T02:07:56;12.40;99.90
52509;DHT22;38420;53.150;6.370;2022-10-17T02:10:43;12.50;99.90
52509;DHT22;38420;53.150;6.370;2022-10-17T02:15:58;12.30;99.90
52509;DHT22;38420;53.150;6.370;2022-10-17T02:18:46;12.60;99.90
52509;DHT22;38420;53.150;6.370;2022-10-17T02:21:31;12.40;99.90
52509;DHT22;38420;53.150;6.370;2022-10-17T02:24:42;12.30;99.90
52509;DHT22;38420;53.150;6.370;2022-10-17T02:27:11;12.60;99.90
52509;DHT22;38420;53.150;6.370;2022-10-17T02:29:53;12.50;99.90
52509;DHT22;38420;53.150;6.370;2022-10-17T02:32:27;12.40;99.90
52509;DHT22;38420;53.150;6.370;2022-10-17T02:35:00;12.40;99.90
52509;DHT22;38420;53.150;6.370;2022-10-17T02:37:27;12.30;99.90
52509;DHT22;38420;53.150;6.370;2022-10-17T02:39:56;12.30;99.90
52509;DHT22;38420;53.150;6.370;2022-10-17T02:42:22;12.60;99.90
52509;DHT22;38420;53.150;6.370;2022-10-17T02:44:49;12.40;99.90
52509;DHT22;38420;53.150;6.370;2022-10-17T02:49:49;12.30;99.90
52509;DHT22;38420;53.150;6.370;2022-10-17T02:57:42;12.80;99.90
52509;DHT22;38420;53.150;6.370;2022-10-17T03:00:10;12.70;99.90
52509;DHT22;38420;53.150;6.370;2022-10-17T03:02:47;12.40;99.90
52509;DHT22;38420;53.150;6.370;2022-10-17T03:05:25;12.50;99.90
52509;DHT22;38420;53.150;6.370;2022-10-17T03:07:51;12.70;99.90
52509;DHT22;38420;53.150;6.370;2022-10-17T03:10:18;12.40;99.90
52509;DHT22;38420;53.150;6.370;2022-10-17T03:12:44;12.40;99.90
52509;DHT22;38420;53.150;6.370;2022-10-17T03:15:10;12.60;99.90
52509;DHT22;38420;53.150;6.370;2022-10-17T03:17:36;12.70;99.90
52509;DHT22;38420;53.150;6.370;2022-10-17T03:20:03;12.90;99.90
52509;DHT22;38420;53.150;6.370;2022-10-17T03:22:29;12.50;99.90
52509;DHT22;38420;53.150;6.370;2022-10-17T03:24:55;12.50;99.90
52509;DHT22;38420;53.150;6.370;2022-10-17T03:27:20;12.90;99.90
52509;DHT22;38420;53.150;6.370;2022-10-17T03:29:47;12.50;99.90
52509;DHT22;38420;53.150;6.370;2022-10-17T03:32:12;12.70;99.90
52509;DHT22;38420;53.150;6.370;2022-10-17T03:34:38;12.50;99.90
52509;DHT22;38420;53.150;6.370;2022-10-17T03:37:03;12.90;99.90
52509;DHT22;38420;53.150;6.370;2022-10-17T03:39:29;12.80;99.90
52509;DHT22;38420;53.150;6.370;2022-10-17T03:41:55;12.60;99.90
52509;DHT22;38420;53.150;6.370;2022-10-17T03:44:20;13.00;99.90
52509;DHT22;38420;53.150;6.370;2022-10-17T03:46:46;12.90;99.90
52509;DHT22;38420;53.150;6.370;2022-10-17T03:49:12;12.60;99.90
52509;DHT22;38420;53.150;6.370;2022-10-17T03:51:37;12.80;99.90
52509;DHT22;38420;53.150;6.370;2022-10-17T03:54:03;13.10;99.90
52509;DHT22;38420;53.150;6.370;2022-10-17T03:56:28;12.90;99.90
52509;DHT22;38420;53.150;6.370;2022-10-17T03:58:54;12.60;99.90
52509;DHT22;38420;53.150;6.370;2022-10-17T04:01:20;13.10;99.90
52509;DHT22;38420;53.150;6.370;2022-10-17T04:03:51;12.90;99.90
52509;DHT22;38420;53.150;6.370;2022-10-17T04:06:17;12.70;99.90
52509;DHT22;38420;53.150;6.370;2022-10-17T04:08:43;12.80;99.90
52509;DHT22;38420;53.150;6.370;2022-10-17T04:11:13;12.90;99.90
52509;DHT22;38420;53.150;6.370;2022-10-17T04:13:39;13.20;99.90
52509;DHT22;38420;53.150;6.370;2022-10-17T04:16:07;12.70;99.90
52509;DHT22;38420;53.150;6.370;2022-10-17T04:18:34;13.00;99.90
52509;DHT22;38420;53.150;6.370;2022-10-17T04:21:01;12.80;99.90
52509;DHT22;38420;53.150;6.370;2022-10-17T04:23:27;13.20;99.90
52509;DHT22;38420;53.150;6.370;2022-10-17T04:26:00;13.40;99.90
52509;DHT22;38420;53.150;6.370;2022-10-17T04:28:27;12.80;99.90
52509;DHT22;38420;53.150;6.370;2022-10-17T04:31:00;12.90;99.90
52509;DHT22;38420;53.150;6.370;2022-10-17T04:33:26;13.40;99.90
52509;DHT22;38420;53.150;6.370;2022-10-17T04:38:24;13.60;99.90
52509;DHT22;38420;53.150;6.370;2022-10-17T04:40:50;13.50;99.90
52509;DHT22;38420;53.150;6.370;2022-10-17T04:43:16;13.60;99.90
52509;DHT22;38420;53.150;6.370;2022-10-17T04:45:41;13.60;99.90
52509;DHT22;38420;53.150;6.370;2022-10-17T04:48:07;13.60;99.90
52509;DHT22;38420;53.150;6.370;2022-10-17T04:50:32;13.70;99.90
52509;DHT22;38420;53.150;6.370;2022-10-17T04:52:58;13.40;99.90
52509;DHT22;38420;53.150;6.370;2022-10-17T04:55:24;13.10;99.90
52509;DHT22;38420;53.150;6.370;2022-10-17T04:57:49;13.70;99.90
52509;DHT22;38420;53.150;6.370;2022-10-17T05:00:15;13.70;99.90
52509;DHT22;38420;53.150;6.370;2022-10-17T05:02:40;13.50;99.90
52509;DHT22;38420;53.150;6.370;2022-10-17T05:05:06;13.80;99.90
52509;DHT22;38420;53.150;6.370;2022-10-17T05:07:32;13.40;99.90
52509;DHT22;38420;53.150;6.370;2022-10-17T05:09:57;13.90;99.90
52509;DHT22;38420;53.150;6.370;2022-10-17T05:12:24;13.90;99.90
52509;DHT22;38420;53.150;6.370;2022-10-17T05:14:49;13.60;99.90
52509;DHT22;38420;53.150;6.370;2022-10-17T05:17:15;14.20;99.90
52509;DHT22;38420;53.150;6.370;2022-10-17T05:19:40;14.30;99.90
52509;DHT22;38420;53.150;6.370;2022-10-17T05:22:06;13.90;99.90
52509;DHT22;38420;53.150;6.370;2022-10-17T05:24:32;14.20;99.90
52509;DHT22;38420;53.150;6.370;2022-10-17T05:26:57;14.20;99.90
52509;DHT22;38420;53.150;6.370;2022-10-17T05:29:23;14.30;99.90
52509;DHT22;38420;53.150;6.370;2022-10-17T05:31:48;13.80;99.90
52509;DHT22;38420;53.150;6.370;2022-10-17T05:34:14;14.10;99.90
52509;DHT22;38420;53.150;6.370;2022-10-17T05:36:40;13.80;99.90
52509;DHT22;38420;53.150;6.370;2022-10-17T05:39:05;14.30;99.90
52509;DHT22;38420;53.150;6.370;2022-10-17T05:41:31;13.70;99.90
52509;DHT22;38420;53.150;6.370;2022-10-17T05:43:56;13.90;99.90
52509;DHT22;38420;53.150;6.370;2022-10-17T05:46:22;14.40;99.90
52509;DHT22;38420;53.150;6.370;2022-10-17T05:48:49;13.80;99.90
52509;DHT22;38420;53.150;6.370;2022-10-17T05:51:14;14.40;99.90
52509;DHT22;38420;53.150;6.370;2022-10-17T05:53:40;14.00;99.90
52509;DHT22;38420;53.150;6.370;2022-10-17T05:56:08;14.40;99.90
52509;DHT22;38420;53.150;6.370;2022-10-17T05:58:34;14.50;99.90
52509;DHT22;38420;53.150;6.370;2022-10-17T06:01:03;14.50;99.90
52509;DHT22;38420;53.150;6.370;2022-10-17T06:03:29;13.90;99.90
52509;DHT22;38420;53.150;6.370;2022-10-17T06:05:55;14.20;99.90
52509;DHT22;38420;53.150;6.370;2022-10-17T06:08:21;14.30;99.90
52509;DHT22;38420;53.150;6.370;2022-10-17T06:10:48;13.80;99.90
52509;DHT22;38420;53.150;6.370;2022-10-17T06:13:17;14.40;99.90
52509;DHT22;38420;53.150;6.370;2022-10-17T06:15:43;13.80;99.90
52509;DHT22;38420;53.150;6.370;2022-10-17T06:18:10;14.40;99.90
52509;DHT22;38420;53.150;6.370;2022-10-17T06:20:35;14.20;99.90
52509;DHT22;38420;53.150;6.370;2022-10-17T06:23:01;14.00;99.90
52509;DHT22;38420;53.150;6.370;2022-10-17T06:25:29;14.20;99.90
52509;DHT22;38420;53.150;6.370;2022-10-17T06:27:54;14.10;99.90
52509;DHT22;38420;53.150;6.370;2022-10-17T06:30:20;14.10;99.90
52509;DHT22;38420;53.150;6.370;2022-10-17T06:32:45;14.50;99.90
52509;DHT22;38420;53.150;6.370;2022-10-17T06:35:11;14.50;99.90
52509;DHT22;38420;53.150;6.370;2022-10-17T06:37:37;14.60;99.90
52509;DHT22;38420;53.150;6.370;2022-10-17T06:40:03;14.60;99.90
52509;DHT22;38420;53.150;6.370;2022-10-17T06:42:28;14.10;99.90
52509;DHT22;38420;53.150;6.370;2022-10-17T06:44:54;14.60;99.90
52509;DHT22;38420;53.150;6.370;2022-10-17T06:47:20;14.80;99.90
52509;DHT22;38420;53.150;6.370;2022-10-17T06:49:45;14.10;99.90
52509;DHT22;38420;53.150;6.370;2022-10-17T06:52:11;14.70;99.90
52509;DHT22;38420;53.150;6.370;2022-10-17T06:54:36;14.10;99.90
52509;DHT22;38420;53.150;6.370;2022-10-17T06:57:02;14.20;99.90
52509;DHT22;38420;53.150;6.370;2022-10-17T06:59:27;14.80;99.90
52509;DHT22;38420;53.150;6.370;2022-10-17T07:01:53;14.20;99.90
52509;DHT22;38420;53.150;6.370;2022-10-17T07:04:19;14.90;99.90
52509;DHT22;38420;53.150;6.370;2022-10-17T07:06:44;14.80;99.90
52509;DHT22;38420;53.150;6.370;2022-10-17T07:09:10;14.60;99.90
52509;DHT22;38420;53.150;6.370;2022-10-17T07:11:36;14.60;99.90
52509;DHT22;38420;53.150;6.370;2022-10-17T07:14:02;14.70;99.90
52509;DHT22;38420;53.150;6.370;2022-10-17T07:16:28;15.00;99.90
52509;DHT22;38420;53.150;6.370;2022-10-17T07:18:54;15.10;99.90
52509;DHT22;38420;53.150;6.370;2022-10-17T07:21:19;14.50;99.90
52509;DHT22;38420;53.150;6.370;2022-10-17T07:23:45;14.60;99.90
52509;DHT22;38420;53.150;6.370;2022-10-17T07:26:13;14.60;99.90
52509;DHT22;38420;53.150;6.370;2022-10-17T07:28:42;15.00;99.90
52509;DHT22;38420;53.150;6.370;2022-10-17T07:31:16;15.20;99.90
52509;DHT22;38420;53.150;6.370;2022-10-17T07:33:43;15.40;99.90
52509;DHT22;38420;53.150;6.370;2022-10-17T07:36:09;14.90;99.90
52509;DHT22;38420;53.150;6.370;2022-10-17T07:38:35;15.60;99.90
52509;DHT22;38420;53.150;6.370;2022-10-17T07:41:03;15.40;99.90
52509;DHT22;38420;53.150;6.370;2022-10-17T07:43:29;15.10;99.90
52509;DHT22;38420;53.150;6.370;2022-10-17T07:45:55;15.70;99.90
52509;DHT22;38420;53.150;6.370;2022-10-17T07:48:22;15.80;99.90
52509;DHT22;38420;53.150;6.370;2022-10-17T07:50:48;15.80;99.90
52509;DHT22;38420;53.150;6.370;2022-10-17T07:53:14;15.20;99.90
52509;DHT22;38420;53.150;6.370;2022-10-17T07:55:40;15.80;99.90
52509;DHT22;38420;53.150;6.370;2022-10-17T07:58:07;15.40;99.90
52509;DHT22;38420;53.150;6.370;2022-10-17T08:00:34;16.10;99.90
52509;DHT22;38420;53.150;6.370;2022-10-17T08:03:00;16.20;99.90
52509;DHT22;38420;53.150;6.370;2022-10-17T08:05:26;16.30;99.90
52509;DHT22;38420;53.150;6.370;2022-10-17T08:07:51;16.40;99.90
52509;DHT22;38420;53.150;6.370;2022-10-17T08:10:17;15.90;99.90
52509;DHT22;38420;53.150;6.370;2022-10-17T08:12:43;16.60;99.90
52509;DHT22;38420;53.150;6.370;2022-10-17T08:15:09;16.60;99.90
52509;DHT22;38420;53.150;6.370;2022-10-17T08:17:36;16.10;99.90
52509;DHT22;38420;53.150;6.370;2022-10-17T08:20:05;16.60;99.90
52509;DHT22;38420;53.150;6.370;2022-10-17T08:22:32;16.40;99.90
52509;DHT22;38420;53.150;6.370;2022-10-17T08:24:58;16.60;99.90
52509;DHT22;38420;53.150;6.370;2022-10-17T08:27:23;16.50;99.90
52509;DHT22;38420;53.150;6.370;2022-10-17T08:29:52;16.80;99.90
52509;DHT22;38420;53.150;6.370;2022-10-17T08:32:20;16.40;99.90
52509;DHT22;38420;53.150;6.370;2022-10-17T08:34:45;16.80;99.90
52509;DHT22;38420;53.150;6.370;2022-10-17T08:37:11;16.50;99.90
52509;DHT22;38420;53.150;6.370;2022-10-17T08:39:40;16.80;99.90
52509;DHT22;38420;53.150;6.370;2022-10-17T08:42:36;16.90;99.90
52509;DHT22;38420;53.150;6.370;2022-10-17T08:47:58;16.80;99.90
52509;DHT22;38420;53.150;6.370;2022-10-17T08:50:29;17.20;99.90
52509;DHT22;38420;53.150;6.370;2022-10-17T08:55:36;17.30;99.90
52509;DHT22;38420;53.150;6.370;2022-10-17T08:58:16;17.40;99.90
52509;DHT22;38420;53.150;6.370;2022-10-17T09:06:33;17.20;99.90
52509;DHT22;38420;53.150;6.370;2022-10-17T09:09:24;17.50;99.90
52509;DHT22;38420;53.150;6.370;2022-10-17T09:12:01;17.20;99.90
52509;DHT22;38420;53.150;6.370;2022-10-17T09:15:04;17.40;99.90
52509;DHT22;38420;53.150;6.370;2022-10-17T09:20:08;17.20;99.90
52509;DHT22;38420;53.150;6.370;2022-10-17T09:22:45;17.20;99.90
52509;DHT22;38420;53.150;6.370;2022-10-17T09:25:15;17.30;99.90
52509;DHT22;38420;53.150;6.370;2022-10-17T09:27:45;17.20;99.90
52509;DHT22;38420;53.150;6.370;2022-10-17T09:30:29;17.50;99.90
52509;DHT22;38420;53.150;6.370;2022-10-17T09:32:56;17.50;99.90
52509;DHT22;38420;53.150;6.370;2022-10-17T09:35:22;17.10;99.90
52509;DHT22;38420;53.150;6.370;2022-10-17T09:37:48;17.40;99.90
52509;DHT22;38420;53.150;6.370;2022-10-17T09:40:33;17.20;99.90
52509;DHT22;38420;53.150;6.370;2022-10-17T09:43:01;17.00;99.90
52509;DHT22;38420;53.150;6.370;2022-10-17T09:45:32;17.00;99.90
52509;DHT22;38420;53.150;6.370;2022-10-17T09:48:26;17.30;99.90
52509;DHT22;38420;53.150;6.370;2022-10-17T09:50:55;17.40;99.90
52509;DHT22;38420;53.150;6.370;2022-10-17T09:53:22;16.90;99.90
52509;DHT22;38420;53.150;6.370;2022-10-17T09:55:54;16.90;99.90
52509;DHT22;38420;53.150;6.370;2022-10-17T09:58:21;16.80;99.90
52509;DHT22;38420;53.150;6.370;2022-10-17T10:00:48;17.20;99.90
52509;DHT22;38420;53.150;6.370;2022-10-17T10:03:22;16.70;99.90
52509;DHT22;38420;53.150;6.370;2022-10-17T10:08:36;16.60;99.90
52509;DHT22;38420;53.150;6.370;2022-10-17T10:11:07;17.00;99.90
52509;DHT22;38420;53.150;6.370;2022-10-17T10:13:33;17.00;99.90
52509;DHT22;38420;53.150;6.370;2022-10-17T10:16:29;17.00;99.90
52509;DHT22;38420;53.150;6.370;2022-10-17T10:18:55;16.60;99.90
52509;DHT22;38420;53.150;6.370;2022-10-17T10:21:23;16.80;99.90
52509;DHT22;38420;53.150;6.370;2022-10-17T10:26:26;16.70;99.90
52509;DHT22;38420;53.150;6.370;2022-10-17T10:28:59;16.40;99.90
52509;DHT22;38420;53.150;6.370;2022-10-17T10:31:29;16.70;99.90
52509;DHT22;38420;53.150;6.370;2022-10-17T10:33:55;16.70;99.90
52509;DHT22;38420;53.150;6.370;2022-10-17T10:36:22;16.80;99.90
52509;DHT22;38420;53.150;6.370;2022-10-17T10:38:55;16.30;99.90
52509;DHT22;38420;53.150;6.370;2022-10-17T10:41:22;16.80;99.90
52509;DHT22;38420;53.150;6.370;2022-10-17T10:43:49;16.60;99.90
52509;DHT22;38420;53.150;6.370;2022-10-17T10:46:21;16.30;99.90
52509;DHT22;38420;53.150;6.370;2022-10-17T10:48:57;16.70;99.90
52509;DHT22;38420;53.150;6.370;2022-10-17T10:51:43;16.40;99.90
52509;DHT22;38420;53.150;6.370;2022-10-17T10:54:12;16.80;99.90
52509;DHT22;38420;53.150;6.370;2022-10-17T10:56:45;16.20;99.90
52509;DHT22;38420;53.150;6.370;2022-10-17T10:59:28;16.20;99.90
52509;DHT22;38420;53.150;6.370;2022-10-17T11:02:13;16.80;99.90
52509;DHT22;38420;53.150;6.370;2022-10-17T11:07:39;16.20;99.90
52509;DHT22;38420;53.150;6.370;2022-10-17T11:12:44;16.70;99.90
52509;DHT22;38420;53.150;6.370;2022-10-17T11:15:26;16.30;99.90
52509;DHT22;38420;53.150;6.370;2022-10-17T11:17:58;17.00;99.90
52509;DHT22;38420;53.150;6.370;2022-10-17T11:23:17;16.40;99.90
52509;DHT22;38420;53.150;6.370;2022-10-17T11:25:47;17.00;99.90
52509;DHT22;38420;53.150;6.370;2022-10-17T11:28:16;17.00;99.90
52509;DHT22;38420;53.150;6.370;2022-10-17T11:31:02;17.00;99.90
52509;DHT22;38420;53.150;6.370;2022-10-17T11:36:09;16.60;99.90
52509;DHT22;38420;53.150;6.370;2022-10-17T11:38:50;16.30;99.90
52509;DHT22;38420;53.150;6.370;2022-10-17T11:41:31;17.10;99.90
52509;DHT22;38420;53.150;6.370;2022-10-17T11:44:04;16.80;99.90
52509;DHT22;38420;53.150;6.370;2022-10-17T11:46:33;16.40;99.90
52509;DHT22;38420;53.150;6.370;2022-10-17T11:49:12;16.70;99.90
52509;DHT22;38420;53.150;6.370;2022-10-17T11:51:49;17.00;99.90
52509;DHT22;38420;53.150;6.370;2022-10-17T11:54:22;16.80;99.90
52509;DHT22;38420;53.150;6.370;2022-10-17T12:15:57;16.60;99.90
52509;DHT22;38420;53.150;6.370;2022-10-17T12:18:42;16.80;99.90
52509;DHT22;38420;53.150;6.370;2022-10-17T12:21:08;17.00;99.90
52509;DHT22;38420;53.150;6.370;2022-10-17T12:23:34;16.40;99.90
52509;DHT22;38420;53.150;6.370;2022-10-17T12:26:05;16.60;99.90
52509;DHT22;38420;53.150;6.370;2022-10-17T12:34:03;16.80;99.90
52509;DHT22;38420;53.150;6.370;2022-10-17T12:49:41;17.00;99.90
52509;DHT22;38420;53.150;6.370;2022-10-17T12:52:15;17.00;99.90
52509;DHT22;38420;53.150;6.370;2022-10-17T12:54:44;16.90;99.90
52509;DHT22;38420;53.150;6.370;2022-10-17T13:00:14;17.10;99.90
52509;DHT22;38420;53.150;6.370;2022-10-17T13:02:41;16.70;99.90
52509;DHT22;38420;53.150;6.370;2022-10-17T13:05:18;16.70;99.90
52509;DHT22;38420;53.150;6.370;2022-10-17T13:07:47;17.00;99.90
52509;DHT22;38420;53.150;6.370;2022-10-17T13:10:25;16.50;99.90
52509;DHT22;38420;53.150;6.370;2022-10-17T13:13:19;16.70;99.90
52509;DHT22;38420;53.150;6.370;2022-10-17T13:15:52;16.60;99.90
52509;DHT22;38420;53.150;6.370;2022-10-17T13:18:25;16.80;99.90
52509;DHT22;38420;53.150;6.370;2022-10-17T13:20:59;16.80;99.90
52509;DHT22;38420;53.150;6.370;2022-10-17T13:23:29;16.40;99.90
52509;DHT22;38420;53.150;6.370;2022-10-17T13:26:16;17.20;99.90
52509;DHT22;38420;53.150;6.370;2022-10-17T13:28:45;16.20;99.90
52509;DHT22;38420;53.150;6.370;2022-10-17T13:31:32;16.60;99.90
52509;DHT22;38420;53.150;6.370;2022-10-17T13:34:00;16.10;99.90
52509;DHT22;38420;53.150;6.370;2022-10-17T13:36:27;16.10;99.90
52509;DHT22;38420;53.150;6.370;2022-10-17T13:38:53;16.40;99.90
52509;DHT22;38420;53.150;6.370;2022-10-17T13:41:25;15.90;99.90
52509;DHT22;38420;53.150;6.370;2022-10-17T13:43:52;16.30;99.90
52509;DHT22;38420;53.150;6.370;2022-10-17T13:46:29;15.80;99.90
52509;DHT22;38420;53.150;6.370;2022-10-17T13:48:59;15.80;99.90
52509;DHT22;38420;53.150;6.370;2022-10-17T13:51:33;16.30;99.90
52509;DHT22;38420;53.150;6.370;2022-10-17T13:53:59;15.90;99.90
52509;DHT22;38420;53.150;6.370;2022-10-17T13:56:26;16.20;99.90
52509;DHT22;38420;53.150;6.370;2022-10-17T13:58:54;15.70;99.90
52509;DHT22;38420;53.150;6.370;2022-10-17T14:01:23;15.80;99.90
52509;DHT22;38420;53.150;6.370;2022-10-17T14:03:49;16.20;99.90
52509;DHT22;38420;53.150;6.370;2022-10-17T14:06:29;16.10;99.90
52509;DHT22;38420;53.150;6.370;2022-10-17T14:09:04;16.10;99.90
52509;DHT22;38420;53.150;6.370;2022-10-17T14:11:39;16.30;99.90
52509;DHT22;38420;53.150;6.370;2022-10-17T14:14:14;16.30;99.90
52509;DHT22;38420;53.150;6.370;2022-10-17T14:16:41;15.80;99.90
52509;DHT22;38420;53.150;6.370;2022-10-17T14:19:31;16.20;99.90
52509;DHT22;38420;53.150;6.370;2022-10-17T14:22:27;15.80;99.90
52509;DHT22;38420;53.150;6.370;2022-10-17T14:24:53;15.90;99.90
52509;DHT22;38420;53.150;6.370;2022-10-17T14:27:35;16.00;99.90
52509;DHT22;38420;53.150;6.370;2022-10-17T14:30:06;16.00;99.90
52509;DHT22;38420;53.150;6.370;2022-10-17T14:32:35;16.10;99.90
52509;DHT22;38420;53.150;6.370;2022-10-17T14:35:03;15.90;99.90
52509;DHT22;38420;53.150;6.370;2022-10-17T14:37:44;16.20;99.90
52509;DHT22;38420;53.150;6.370;2022-10-17T14:40:22;16.10;99.90
52509;DHT22;38420;53.150;6.370;2022-10-17T14:42:49;15.70;99.90
52509;DHT22;38420;53.150;6.370;2022-10-17T14:45:29;15.90;99.90
52509;DHT22;38420;53.150;6.370;2022-10-17T14:48:10;16.20;99.90
52509;DHT22;38420;53.150;6.370;2022-10-17T14:50:36;16.30;99.90
52509;DHT22;38420;53.150;6.370;2022-10-17T14:55:38;15.70;99.90
52509;DHT22;38420;53.150;6.370;2022-10-17T14:58:21;16.20;99.90
52509;DHT22;38420;53.150;6.370;2022-10-17T15:00:48;16.00;99.90
52509;DHT22;38420;53.150;6.370;2022-10-17T15:03:13;15.90;99.90
52509;DHT22;38420;53.150;6.370;2022-10-17T15:05:39;16.00;99.90
52509;DHT22;38420;53.150;6.370;2022-10-17T15:08:16;15.70;99.90
52509;DHT22;38420;53.150;6.370;2022-10-17T15:10:42;16.20;99.90
52509;DHT22;38420;53.150;6.370;2022-10-17T15:13:09;15.70;99.90
52509;DHT22;38420;53.150;6.370;2022-10-17T15:15:36;16.10;99.90
52509;DHT22;38420;53.150;6.370;2022-10-17T15:18:02;16.30;99.90
52509;DHT22;38420;53.150;6.370;2022-10-17T15:20:29;15.70;99.90
52509;DHT22;38420;53.150;6.370;2022-10-17T15:22:57;16.00;99.90
52509;DHT22;38420;53.150;6.370;2022-10-17T15:25:24;16.10;99.90
52509;DHT22;38420;53.150;6.370;2022-10-17T15:27:51;16.10;99.90
52509;DHT22;38420;53.150;6.370;2022-10-17T15:30:24;16.20;99.90
52509;DHT22;38420;53.150;6.370;2022-10-17T15:32:50;15.90;99.90
52509;DHT22;38420;53.150;6.370;2022-10-17T15:35:17;16.00;99.90
52509;DHT22;38420;53.150;6.370;2022-10-17T15:37:43;15.90;99.90
52509;DHT22;38420;53.150;6.370;2022-10-17T15:40:19;16.10;99.90
52509;DHT22;38420;53.150;6.370;2022-10-17T15:42:45;16.00;99.90
52509;DHT22;38420;53.150;6.370;2022-10-17T15:45:12;15.80;99.90
52509;DHT22;38420;53.150;6.370;2022-10-17T15:47:41;15.50;99.90
52509;DHT22;38420;53.150;6.370;2022-10-17T15:50:13;15.80;99.90
52509;DHT22;38420;53.150;6.370;2022-10-17T15:52:38;15.80;99.90
52509;DHT22;38420;53.150;6.370;2022-10-17T15:55:06;15.40;99.90
52509;DHT22;38420;53.150;6.370;2022-10-17T15:57:35;15.90;99.90
52509;DHT22;38420;53.150;6.370;2022-10-17T16:00:05;15.70;99.90
52509;DHT22;38420;53.150;6.370;2022-10-17T16:02:31;15.40;99.90
52509;DHT22;38420;53.150;6.370;2022-10-17T16:04:58;15.60;99.90
52509;DHT22;38420;53.150;6.370;2022-10-17T16:07:23;15.30;99.90
52509;DHT22;38420;53.150;6.370;2022-10-17T16:09:49;15.60;99.90
52509;DHT22;38420;53.150;6.370;2022-10-17T16:12:22;15.70;99.90
52509;DHT22;38420;53.150;6.370;2022-10-17T16:14:51;15.20;99.90
52509;DHT22;38420;53.150;6.370;2022-10-17T16:17:16;15.20;99.90
52509;DHT22;38420;53.150;6.370;2022-10-17T16:19:42;15.40;99.90
52509;DHT22;38420;53.150;6.370;2022-10-17T16:22:32;15.40;99.90
52509;DHT22;38420;53.150;6.370;2022-10-17T16:25:00;15.20;99.90
52509;DHT22;38420;53.150;6.370;2022-10-17T16:27:32;15.50;99.90
52509;DHT22;38420;53.150;6.370;2022-10-17T16:29:58;15.10;99.90
52509;DHT22;38420;53.150;6.370;2022-10-17T16:32:23;15.10;99.90
52509;DHT22;38420;53.150;6.370;2022-10-17T16:34:49;15.50;99.90
52509;DHT22;38420;53.150;6.370;2022-10-17T16:37:14;15.40;99.90
52509;DHT22;38420;53.150;6.370;2022-10-17T16:39:40;15.30;99.90
52509;DHT22;38420;53.150;6.370;2022-10-17T16:42:06;15.00;99.90
52509;DHT22;38420;53.150;6.370;2022-10-17T16:44:31;15.00;99.90
52509;DHT22;38420;53.150;6.370;2022-10-17T16:46:57;15.00;99.90
52509;DHT22;38420;53.150;6.370;2022-10-17T16:49:22;15.30;99.90
52509;DHT22;38420;53.150;6.370;2022-10-17T16:51:48;14.90;99.90
52509;DHT22;38420;53.150;6.370;2022-10-17T16:54:13;15.20;99.90
52509;DHT22;38420;53.150;6.370;2022-10-17T16:56:39;15.30;99.90
52509;DHT22;38420;53.150;6.370;2022-10-17T16:59:06;15.10;99.90
52509;DHT22;38420;53.150;6.370;2022-10-17T17:01:32;14.80;99.90
52509;DHT22;38420;53.150;6.370;2022-10-17T17:03:57;14.90;99.90
52509;DHT22;38420;53.150;6.370;2022-10-17T17:06:27;15.00;99.90
52509;DHT22;38420;53.150;6.370;2022-10-17T17:08:54;15.20;99.90
52509;DHT22;38420;53.150;6.370;2022-10-17T17:11:22;14.80;99.90
52509;DHT22;38420;53.150;6.370;2022-10-17T17:13:48;15.30;99.90
52509;DHT22;38420;53.150;6.370;2022-10-17T17:16:17;14.70;99.90
52509;DHT22;38420;53.150;6.370;2022-10-17T17:18:43;15.00;99.90
52509;DHT22;38420;53.150;6.370;2022-10-17T17:21:11;15.20;99.90
52509;DHT22;38420;53.150;6.370;2022-10-17T17:23:38;14.70;99.90
52509;DHT22;38420;53.150;6.370;2022-10-17T17:26:06;15.10;99.90
52509;DHT22;38420;53.150;6.370;2022-10-17T17:28:33;15.10;99.90
52509;DHT22;38420;53.150;6.370;2022-10-17T17:30:59;15.10;99.90